AirNav   Air Wisconsin Up To $57,000 Bonus
 
 1409 users online  

72PN Distribution Center Heliport
New Kingston, Pennsylvania, USA

GOING TO NEW KINGSTON?


FAA INFORMATION EFFECTIVE 05 DECEMBER 2019

Location

FAA Identifier: 72PN
Lat/Long: 40-13-40.3190N 077-05-18.9220W
40-13.671983N 077-05.315367W
40.2278664,-77.0885894
(estimated)
Elevation: 454 ft. / 138 m (estimated)
Variation: 10W (1985)
Time zone: UTC -5 (UTC -4 during Daylight Saving Time)
Zip code: 17055

Heliport Operations

Heliport use: Private use. Permission required prior to landing
Activation date: 10/1981
Control tower: no
ARTCC: NEW YORK CENTER
FSS: WILLIAMSPORT FLIGHT SERVICE STATION
Attendance: UNATNDD
Wind indicator: yes
Segmented circle: no

Heliport Communications

WX ASOS at CXY (11 nm E): PHONE 717-770-0880
WX ASOS at MDT (15 nm E): PHONE 717-944-1372

Nearby radio navigation aids

VOR radial/distance  VOR name  Freq  Var
HARr201/4.5HARRISBURG VORTAC112.5010W
RAVr240/29.7RAVINE VORTAC114.6011W
SEGr203/35.0SELINSGROVE VOR/DME110.4008W
LRPr289/37.1LANCASTER VOR/DME117.3009W

 
NDB name  Hdg/Dist  Freq  Var  ID
LATLE319/4.821911WCX -.-. -..-
ENOLA274/8.720411WMD -- -..
BELLGROVE253/27.532810WBZJ -... --.. .---

Heliport Services

Runway Information

Helipad H1

Dimensions: 65 x 65 ft. / 20 x 20 m
Surface: asphalt, in fair condition
Latitude: 40-13.671983N
Longitude: 077-05.315367W
Elevation: 454.0 ft.
Traffic pattern: leftleft
Markings: none, in fair condition

Heliport Ownership and Management from official FAA records

Ownership: Privately-owned
Owner: PRIVATE
180 KOST ROAD
MECHANICSBURG, PA 17055
Phone 717-795-4000
Manager: HAMPSHIRE REAL ESTATE
83 SOUTH ST
MORRISTOWN, NJ 07960
Phone 973-292-9595

Additional Remarks

FOR CD CTC HARRISBURG APCH AT 800-932-0712.

Instrument Procedures

There are no published instrument procedures at 72PN.

Some nearby airports with instrument procedures:

N94 - Carlisle Airport (5 nm SW)
KCXY - Capital City Airport (11 nm E)
KMDT - Harrisburg International Airport (15 nm E)
KTHV - York Airport (21 nm SE)
58N - Reigle Field Airport (24 nm E)
 
Loc | Ops | Rwys | IFR | FBO | Links
Com | Nav | Svcs | Stats | Notes
Area around 72PN (Distribution Center Heliport)
 
Road maps at: MapQuest Bing Google
 
Aerial photo
No photo
 
Sectional chart

 
Airport distance calculator
Flying to Distribution Center Heliport? Find the distance to fly.

From to 72PN

Sunrise and sunset
Times for 09-Dec-2019
 Local
(UTC-5)
 Zulu
(UTC)
Morning civil twilight06:5011:50
Sunrise07:2012:20
Sunset16:4121:41
Evening civil twilight17:1222:12

Current date and time
Zulu (UTC)  09-Dec-2019 19:59:55
Local (UTC-5)  09-Dec-2019 14:59:55
 
METAR
KCXY 
11nm E 
091942Z VRB04KT 5SM -RA OVC009 09/06 A2985 RMK AO2 P0004 T00890056
KMDT 
15nm E 
091942Z 11007KT 2 1/2SM -RA BR OVC010 07/06 A2984 RMK AO2 SFC VIS 3 CIG 007V013 P0005 T00720061
KTHV 
21nm SE 
091953Z AUTO 19008KT 4SM -RA BR SCT013 BKN055 OVC080 09/07 A2983 RMK AO2 SLP107 P0007 T00890067
TAF
KMDT 
15nm E 
091746Z 0918/1018 17005KT 1SM -RA BR BKN008 OVC015 WS015/22035KT FM091900 17005KT 4SM -RA BR BKN008 OVC015 WS015/22035KT FM092300 19009KT 6SM BR VCSH OVC015 WS020/22040KT FM100400 21009KT P6SM VCSH BKN030 OVC070 WS020/24045KT FM101200 23006KT 6SM BR OVC050 FM101400 23004KT 4SM -RA OVC050
NOTAMs
Click for the latest NOTAMs
NOTAMs are issued by the DoD/FAA and will open in a separate window not controlled by AirNav.

 

 
 

Would you like to see your business listed on this page?

 If your business provides an interesting product or service to pilots, flight crews, aircraft, or users of the Distribution Center Heliport, you should consider listing it here.  To start the listing process, click on the button below
 
Add a business
 

Other Pages about Distribution Center Heliport

Update a link
 
Copyright © AirNav, LLC. All rights reserved. Privacy Policy  Contact